createdAt,value
2017-04-27T00:01:08.522Z,0
2017-04-27T00:02:21.030Z,0
2017-04-27T00:03:33.567Z,0
2017-04-27T00:04:45.771Z,0
2017-04-27T00:05:58.291Z,0
2017-04-27T00:07:10.802Z,0
2017-04-27T00:08:23.347Z,0
2017-04-27T00:09:35.854Z,0
2017-04-27T00:10:48.402Z,0
2017-04-27T00:12:00.918Z,0
2017-04-27T00:13:13.456Z,0
2017-04-27T00:14:25.689Z,0
2017-04-27T00:15:38.227Z,0
2017-04-27T00:16:50.744Z,0
2017-04-27T00:18:03.268Z,0
2017-04-27T00:19:15.798Z,0
2017-04-27T00:20:28.664Z,0
2017-04-27T00:21:41.181Z,0
2017-04-27T00:22:53.710Z,0
2017-04-27T00:24:06.230Z,0
2017-04-27T00:25:18.725Z,0
2017-04-27T00:26:31.244Z,0
2017-04-27T00:27:43.741Z,0
2017-04-27T00:28:56.240Z,0
2017-04-27T00:30:08.778Z,0
2017-04-27T00:31:21.346Z,0
2017-04-27T00:32:33.891Z,0
2017-04-27T00:33:46.396Z,0
2017-04-27T00:34:58.918Z,0
2017-04-27T00:36:11.439Z,0
2017-04-27T00:37:23.986Z,0
2017-04-27T00:38:36.503Z,0
2017-04-27T00:39:49.018Z,0
2017-04-27T00:41:01.549Z,0
2017-04-27T00:42:13.812Z,0
2017-04-27T00:43:26.337Z,0
2017-04-27T00:44:38.862Z,0
2017-04-27T00:45:51.396Z,0
2017-04-27T00:47:03.954Z,0
2017-04-27T00:48:16.474Z,0
2017-04-27T00:49:28.697Z,0
2017-04-27T00:50:41.266Z,0
2017-04-27T00:51:53.783Z,0
2017-04-27T00:53:06.283Z,0
2017-04-27T00:54:18.480Z,0
2017-04-27T00:55:30.977Z,0
2017-04-27T00:56:43.212Z,0
2017-04-27T00:57:55.741Z,0
2017-04-27T00:59:08.260Z,0
2017-04-27T01:00:20.822Z,0
2017-04-27T01:01:33.359Z,0
2017-04-27T01:02:45.880Z,0
2017-04-27T01:03:58.395Z,0
2017-04-27T01:05:10.316Z,0
2017-04-27T01:06:22.836Z,0
2017-04-27T01:07:35.355Z,0
2017-04-27T01:08:47.861Z,0
2017-04-27T01:10:00.389Z,0
2017-04-27T01:11:12.297Z,0
2017-04-27T01:12:24.859Z,0
2017-04-27T01:13:37.388Z,0
2017-04-27T01:14:50.164Z,0
2017-04-27T01:16:02.680Z,0
2017-04-27T01:17:15.200Z,0
2017-04-27T01:18:27.717Z,0
2017-04-27T01:19:40.241Z,0
2017-04-27T01:20:52.759Z,0
2017-04-27T01:22:05.285Z,0
2017-04-27T01:23:17.802Z,0
2017-04-27T01:24:30.318Z,0
2017-04-27T01:25:42.836Z,0
2017-04-27T01:26:55.373Z,0
2017-04-27T01:28:07.927Z,0
2017-04-27T01:29:20.460Z,0
2017-04-27T01:30:32.981Z,0
2017-04-27T01:31:45.555Z,0
2017-04-27T01:32:58.073Z,0
2017-04-27T01:34:10.310Z,0
2017-04-27T01:35:22.566Z,0
2017-04-27T01:36:35.088Z,0
2017-04-27T01:37:47.606Z,0
2017-04-27T01:39:00.105Z,0
2017-04-27T01:40:12.624Z,0
2017-04-27T01:41:25.120Z,0
2017-04-27T01:42:37.641Z,0
2017-04-27T01:43:50.179Z,0
2017-04-27T01:45:02.707Z,0
2017-04-27T01:46:15.253Z,0
2017-04-27T01:47:28.022Z,0
2017-04-27T01:48:40.545Z,0
2017-04-27T01:49:52.790Z,0
2017-04-27T01:51:05.303Z,0
2017-04-27T01:52:17.203Z,0
2017-04-27T01:53:29.750Z,0
2017-04-27T01:54:42.272Z,0
2017-04-27T01:55:54.809Z,0
2017-04-27T01:57:07.341Z,0
2017-04-27T01:58:19.574Z,0
2017-04-27T01:59:32.103Z,0
2017-04-27T02:00:44.346Z,0
2017-04-27T02:01:56.871Z,0
2017-04-27T02:03:09.367Z,0
2017-04-27T02:04:21.919Z,0
2017-04-27T02:05:34.133Z,0
2017-04-27T02:06:46.333Z,0
2017-04-27T02:07:58.879Z,0
2017-04-27T02:09:11.649Z,0
2017-04-27T02:10:24.212Z,0
2017-04-27T02:11:36.413Z,0
2017-04-27T02:12:48.927Z,0
2017-04-27T02:14:01.476Z,0
2017-04-27T02:15:14.025Z,0
2017-04-27T02:16:26.551Z,0
2017-04-27T02:17:39.118Z,0
2017-04-27T02:18:51.642Z,0
2017-04-27T02:20:04.180Z,0
2017-04-27T02:21:16.704Z,0
2017-04-27T02:22:29.205Z,0
2017-04-27T02:23:41.452Z,0
2017-04-27T02:24:54.014Z,0
2017-04-27T02:26:06.544Z,0
2017-04-27T02:27:19.067Z,0
2017-04-27T02:28:31.285Z,0
2017-04-27T02:29:43.821Z,0
2017-04-27T02:30:56.625Z,0
2017-04-27T02:32:09.143Z,0
2017-04-27T02:33:21.060Z,0
2017-04-27T02:34:33.561Z,0
2017-04-27T02:35:46.077Z,0
2017-04-27T02:36:58.594Z,0
2017-04-27T02:38:11.094Z,0
2017-04-27T02:39:23.649Z,0
2017-04-27T02:40:35.858Z,0
2017-04-27T02:41:48.628Z,0
2017-04-27T02:43:01.186Z,0
2017-04-27T02:44:13.757Z,0
2017-04-27T02:45:26.273Z,0
2017-04-27T02:46:38.787Z,0
2017-04-27T02:47:51.295Z,0
2017-04-27T02:49:03.806Z,0
2017-04-27T02:50:16.333Z,0
2017-04-27T02:51:28.845Z,0
2017-04-27T02:52:41.379Z,0
2017-04-27T02:53:53.291Z,0
2017-04-27T02:55:05.520Z,0
2017-04-27T02:56:17.758Z,0
2017-04-27T02:57:29.999Z,0
2017-04-27T02:58:42.529Z,0
2017-04-27T02:59:55.077Z,0
2017-04-27T03:01:07.602Z,0
2017-04-27T03:02:19.844Z,0
2017-04-27T03:03:32.688Z,0
2017-04-27T03:04:45.188Z,0
2017-04-27T03:05:57.723Z,0
2017-04-27T03:07:09.953Z,0
2017-04-27T03:08:21.848Z,0
2017-04-27T03:09:34.371Z,0
2017-04-27T03:10:46.882Z,0
2017-04-27T03:11:59.101Z,0
2017-04-27T03:13:11.629Z,0
2017-04-27T03:14:24.172Z,0
2017-04-27T03:15:36.700Z,0
2017-04-27T03:16:49.243Z,0
2017-04-27T03:18:01.759Z,0
2017-04-27T03:19:14.286Z,0
2017-04-27T03:20:26.483Z,0
2017-04-27T03:21:39.018Z,0
2017-04-27T03:22:51.242Z,0
2017-04-27T03:24:03.470Z,0
2017-04-27T03:25:16.271Z,0
2017-04-27T03:26:28.786Z,0
2017-04-27T03:27:41.333Z,0
2017-04-27T03:28:53.871Z,0
2017-04-27T03:30:06.667Z,0
2017-04-27T03:31:18.893Z,0
2017-04-27T03:32:31.431Z,0
2017-04-27T03:33:43.963Z,5
2017-04-27T03:34:55.926Z,5
2017-04-27T03:36:08.454Z,5
2017-04-27T03:37:20.990Z,5
2017-04-27T03:38:33.573Z,5
2017-04-27T03:39:46.116Z,10
2017-04-27T03:40:58.635Z,10
2017-04-27T03:42:11.178Z,10
2017-04-27T03:43:23.456Z,10
2017-04-27T03:44:35.972Z,15
2017-04-27T03:45:48.470Z,15
2017-04-27T03:47:01.298Z,15
2017-04-27T03:48:13.819Z,20
2017-04-27T03:49:26.378Z,20
2017-04-27T03:50:38.956Z,25
2017-04-27T03:51:51.745Z,25
2017-04-27T03:53:04.271Z,30
2017-04-27T03:54:16.790Z,30
2017-04-27T03:55:29.353Z,30
2017-04-27T03:56:41.585Z,35
2017-04-27T03:57:53.854Z,35
2017-04-27T03:59:06.379Z,40
2017-04-27T04:00:18.899Z,40
2017-04-27T04:01:31.411Z,45
2017-04-27T04:02:43.918Z,50
2017-04-27T04:03:56.449Z,50
2017-04-27T04:05:08.972Z,55
2017-04-27T04:06:21.503Z,55
2017-04-27T04:07:33.741Z,55
2017-04-27T04:08:46.595Z,60
2017-04-27T04:09:59.116Z,65
2017-04-27T04:11:11.658Z,65
2017-04-27T04:12:23.854Z,70
2017-04-27T04:13:36.629Z,70
2017-04-27T04:14:49.163Z,70
2017-04-27T04:16:01.670Z,65
2017-04-27T04:17:13.630Z,65
2017-04-27T04:18:26.166Z,70
2017-04-27T04:19:38.396Z,75
2017-04-27T04:20:50.918Z,80
2017-04-27T04:22:03.441Z,80
2017-04-27T04:23:15.046Z,85
2017-04-27T04:24:27.565Z,85
2017-04-27T04:25:40.062Z,90
2017-04-27T04:26:52.598Z,100
2017-04-27T04:28:04.829Z,110
2017-04-27T04:29:17.394Z,115
2017-04-27T04:30:29.946Z,120
2017-04-27T04:31:42.159Z,120
2017-04-27T04:32:54.692Z,125
2017-04-27T04:34:07.233Z,135
2017-04-27T04:35:19.455Z,145
2017-04-27T04:36:31.967Z,155
2017-04-27T04:37:44.521Z,170
2017-04-27T04:38:57.070Z,185
2017-04-27T04:40:09.563Z,200
2017-04-27T04:41:22.098Z,215
2017-04-27T04:42:34.331Z,225
2017-04-27T04:43:46.844Z,225
2017-04-27T04:44:59.369Z,220
2017-04-27T04:46:11.606Z,230
2017-04-27T04:47:23.835Z,225
2017-04-27T04:48:36.355Z,225
2017-04-27T04:49:48.876Z,230
2017-04-27T04:51:01.066Z,235
2017-04-27T04:52:13.314Z,230
2017-04-27T04:53:25.840Z,225
2017-04-27T04:54:38.339Z,210
2017-04-27T04:55:50.856Z,205
2017-04-27T04:57:03.378Z,205
2017-04-27T04:58:15.900Z,205
2017-04-27T04:59:28.100Z,200
2017-04-27T05:00:40.619Z,195
2017-04-27T05:01:53.211Z,200
2017-04-27T05:03:06.038Z,215
2017-04-27T05:04:18.286Z,230
2017-04-27T05:05:30.805Z,245
2017-04-27T05:06:43.337Z,255
2017-04-27T05:07:55.887Z,250
2017-04-27T05:09:08.428Z,250
2017-04-27T05:10:20.632Z,260
2017-04-27T05:11:32.856Z,270
2017-04-27T05:12:45.375Z,290
2017-04-27T05:13:57.922Z,305
2017-04-27T05:15:10.151Z,310
2017-04-27T05:16:22.380Z,315
2017-04-27T05:17:34.891Z,315
2017-04-27T05:18:47.151Z,310
2017-04-27T05:19:59.675Z,295
2017-04-27T05:21:12.170Z,295
2017-04-27T05:22:24.395Z,305
2017-04-27T05:23:36.933Z,315
2017-04-27T05:24:49.454Z,310
2017-04-27T05:26:01.664Z,270
2017-04-27T05:27:14.231Z,235
2017-04-27T05:28:26.776Z,205
2017-04-27T05:29:39.042Z,200
2017-04-27T05:30:51.558Z,200
2017-04-27T05:32:04.090Z,225
2017-04-27T05:33:16.659Z,265
2017-04-27T05:34:28.877Z,255
2017-04-27T05:35:41.103Z,230
2017-04-27T05:36:53.618Z,270
2017-04-27T05:38:06.157Z,340
2017-04-27T05:39:18.364Z,390
2017-04-27T05:40:30.584Z,410
2017-04-27T05:41:42.834Z,385
2017-04-27T05:42:55.376Z,360
2017-04-27T05:44:07.942Z,350
2017-04-27T05:45:19.568Z,340
2017-04-27T05:46:32.334Z,310
2017-04-27T05:47:44.851Z,255
2017-04-27T05:48:57.374Z,225
2017-04-27T05:50:09.602Z,215
2017-04-27T05:51:21.824Z,215
2017-04-27T05:52:34.343Z,200
2017-04-27T05:53:46.561Z,190
2017-04-27T05:54:59.085Z,190
2017-04-27T05:56:11.630Z,275
2017-04-27T05:57:24.168Z,345
2017-04-27T05:58:36.413Z,325
2017-04-27T05:59:48.914Z,335
2017-04-27T06:01:01.439Z,325
2017-04-27T06:02:13.956Z,365
2017-04-27T06:03:26.170Z,370
2017-04-27T06:04:38.707Z,375
2017-04-27T06:05:51.248Z,325
2017-04-27T06:07:03.794Z,360
2017-04-27T06:08:15.733Z,365
2017-04-27T06:09:28.263Z,370
2017-04-27T06:10:40.495Z,350
2017-04-27T06:11:53.021Z,380
2017-04-27T06:13:05.237Z,415
2017-04-27T06:14:17.809Z,430
2017-04-27T06:15:30.330Z,395
2017-04-27T06:16:42.862Z,445
2017-04-27T06:17:55.360Z,495
2017-04-27T06:19:07.892Z,525
2017-04-27T06:20:20.120Z,570
2017-04-27T06:21:32.669Z,560
2017-04-27T06:22:44.894Z,560
2017-04-27T06:23:57.434Z,495
2017-04-27T06:25:09.938Z,440
2017-04-27T06:26:22.471Z,395
2017-04-27T06:27:34.996Z,380
2017-04-27T06:28:47.534Z,415
2017-04-27T06:30:00.288Z,520
2017-04-27T06:31:12.529Z,350
2017-04-27T06:32:25.057Z,345
2017-04-27T06:33:37.578Z,500
2017-04-27T06:34:50.113Z,935
2017-04-27T06:36:02.642Z,1305
2017-04-27T06:37:15.184Z,1365
2017-04-27T06:38:27.730Z,1400
2017-04-27T06:39:40.231Z,1335
2017-04-27T06:40:53.047Z,1390
2017-04-27T06:42:05.279Z,1465
2017-04-27T06:43:17.494Z,1415
2017-04-27T06:44:30.031Z,1380
2017-04-27T06:45:42.267Z,1245
2017-04-27T06:46:54.781Z,1025
2017-04-27T06:48:07.319Z,1330
2017-04-27T06:49:19.553Z,1405
2017-04-27T06:50:32.099Z,1400
2017-04-27T06:51:44.641Z,1660
2017-04-27T06:52:56.906Z,1645
2017-04-27T06:54:09.159Z,1645
2017-04-27T06:55:21.395Z,1675
2017-04-27T06:56:33.941Z,1675
2017-04-27T06:57:46.499Z,1670
2017-04-27T06:58:58.743Z,1805
2017-04-27T07:00:11.287Z,1860
2017-04-27T07:01:23.856Z,1875
2017-04-27T07:02:36.377Z,1390
2017-04-27T07:03:48.906Z,1125
2017-04-27T07:05:01.177Z,1185
2017-04-27T07:06:13.444Z,890
2017-04-27T07:07:25.989Z,950
2017-04-27T07:08:38.559Z,980
2017-04-27T07:09:50.784Z,1305
2017-04-27T07:11:03.315Z,1350
2017-04-27T07:12:15.575Z,1180
2017-04-27T07:13:28.137Z,1500
2017-04-27T07:14:40.666Z,1540
2017-04-27T07:15:52.925Z,1735
2017-04-27T07:17:05.475Z,1705
2017-04-27T07:18:17.722Z,1585
2017-04-27T07:19:30.252Z,1790
2017-04-27T07:20:42.492Z,1715
2017-04-27T07:21:55.040Z,1505
2017-04-27T07:23:07.305Z,1375
2017-04-27T07:24:19.829Z,1560
2017-04-27T07:25:32.400Z,1305
2017-04-27T07:26:44.628Z,1365
2017-04-27T07:27:57.149Z,1470
2017-04-27T07:29:09.688Z,905
2017-04-27T07:30:22.250Z,1940
2017-04-27T07:31:34.475Z,1995
2017-04-27T07:32:47.022Z,1475
2017-04-27T07:33:59.600Z,1205
2017-04-27T07:35:12.147Z,1970
2017-04-27T07:36:24.723Z,2085
2017-04-27T07:37:37.288Z,2045
2017-04-27T07:38:49.551Z,1835
2017-04-27T07:40:02.101Z,2165
2017-04-27T07:41:14.342Z,2185
2017-04-27T07:42:26.285Z,2200
2017-04-27T07:43:38.816Z,2130
2017-04-27T07:44:51.381Z,1915
2017-04-27T07:46:03.909Z,1480
2017-04-27T07:47:16.169Z,2010
2017-04-27T07:48:28.722Z,2235
2017-04-27T07:49:41.243Z,2275
2017-04-27T07:50:53.807Z,2345
2017-04-27T07:52:06.340Z,2335
2017-04-27T07:53:18.889Z,2335
2017-04-27T07:54:31.445Z,2385
2017-04-27T07:55:43.973Z,2470
2017-04-27T07:56:56.512Z,2170
2017-04-27T07:58:09.082Z,2395
2017-04-27T07:59:21.018Z,1860
2017-04-27T08:00:33.556Z,1415
2017-04-27T08:01:46.095Z,1335
2017-04-27T08:02:58.632Z,2190
2017-04-27T08:04:11.199Z,2395
2017-04-27T08:05:23.744Z,785
2017-04-27T08:06:36.306Z,975
2017-04-27T08:07:48.883Z,1025
2017-04-27T08:09:01.473Z,1125
2017-04-27T08:10:13.727Z,1135
2017-04-27T08:11:25.996Z,1045
2017-04-27T08:12:38.537Z,910
2017-04-27T08:13:51.095Z,780
2017-04-27T08:15:03.607Z,690
2017-04-27T08:16:15.829Z,725
2017-04-27T08:17:28.066Z,750
2017-04-27T08:18:40.550Z,800
2017-04-27T08:19:52.791Z,860
2017-04-27T08:21:05.342Z,915
2017-04-27T08:22:17.578Z,970
2017-04-27T08:23:30.106Z,960
2017-04-27T08:24:42.024Z,940
2017-04-27T08:25:54.551Z,985
2017-04-27T08:27:07.095Z,1015
2017-04-27T08:28:19.644Z,1035
2017-04-27T08:29:31.909Z,1070
2017-04-27T08:30:44.429Z,975
2017-04-27T08:31:56.972Z,840
2017-04-27T08:33:09.512Z,785
2017-04-27T08:34:21.467Z,750
2017-04-27T08:35:34.006Z,775
2017-04-27T08:36:46.555Z,720
2017-04-27T08:37:59.100Z,725
2017-04-27T08:39:11.632Z,715
2017-04-27T08:40:23.875Z,730
2017-04-27T08:41:36.423Z,800
2017-04-27T08:42:48.344Z,870
2017-04-27T08:44:00.864Z,985
2017-04-27T08:45:13.100Z,1115
2017-04-27T08:46:25.643Z,1160
2017-04-27T08:47:38.191Z,1115
2017-04-27T08:48:50.745Z,1035
2017-04-27T08:50:03.263Z,1070
2017-04-27T08:51:15.505Z,1105
2017-04-27T08:52:27.760Z,1065
2017-04-27T08:53:40.316Z,1010
2017-04-27T08:54:52.852Z,1030
2017-04-27T08:56:05.397Z,1055
2017-04-27T08:57:17.367Z,1035
2017-04-27T08:58:29.335Z,945
2017-04-27T08:59:41.581Z,840
2017-04-27T09:00:54.130Z,935
2017-04-27T09:02:06.726Z,925
2017-04-27T09:03:18.973Z,985
2017-04-27T09:04:31.221Z,1000
2017-04-27T09:05:43.789Z,995
2017-04-27T09:06:56.323Z,900
2017-04-27T09:08:08.254Z,905
2017-04-27T09:09:20.473Z,925
2017-04-27T09:10:33.020Z,845
2017-04-27T09:11:45.558Z,835
2017-04-27T09:12:57.811Z,885
2017-04-27T09:14:10.053Z,945
2017-04-27T09:15:21.698Z,935
2017-04-27T09:16:33.941Z,945
2017-04-27T09:17:46.499Z,1025
2017-04-27T09:18:59.019Z,1045
2017-04-27T09:20:11.254Z,1010
2017-04-27T09:21:22.903Z,1000
2017-04-27T09:22:34.875Z,960
2017-04-27T09:23:47.104Z,905
2017-04-27T09:24:59.366Z,735
2017-04-27T09:26:11.866Z,725
2017-04-27T09:27:24.403Z,800
2017-04-27T09:28:36.625Z,915
2017-04-27T09:29:49.207Z,1005
2017-04-27T09:31:01.717Z,1050
2017-04-27T09:32:14.271Z,1055
2017-04-27T09:33:26.776Z,1060
2017-04-27T09:34:39.313Z,1080
2017-04-27T09:35:51.851Z,1025
2017-04-27T09:37:04.086Z,1060
2017-04-27T09:38:16.628Z,1120
2017-04-27T09:39:29.451Z,1125
2017-04-27T09:40:41.708Z,1025
2017-04-27T09:41:53.992Z,910
2017-04-27T09:43:06.530Z,685
2017-04-27T09:44:18.472Z,630
2017-04-27T09:45:30.680Z,615
2017-04-27T09:46:43.227Z,720
2017-04-27T09:47:55.767Z,790
2017-04-27T09:49:08.318Z,865
2017-04-27T09:50:20.862Z,1070
2017-04-27T09:51:33.401Z,1150
2017-04-27T09:52:45.927Z,1070
2017-04-27T09:53:58.481Z,1145
2017-04-27T09:55:10.993Z,1200
2017-04-27T09:56:23.235Z,1130
2017-04-27T09:57:35.477Z,1060
2017-04-27T09:58:48.024Z,2010
2017-04-27T10:00:00.558Z,1300
2017-04-27T10:01:12.796Z,1970
2017-04-27T10:02:25.045Z,1850
2017-04-27T10:03:37.265Z,3190
2017-04-27T10:04:49.794Z,4125
2017-04-27T10:06:02.331Z,3875
2017-04-27T10:07:14.555Z,1220
2017-04-27T10:08:27.157Z,955
2017-04-27T10:09:39.712Z,2390
2017-04-27T10:10:52.286Z,1085
2017-04-27T10:12:04.517Z,1045
2017-04-27T10:13:16.810Z,1220
2017-04-27T10:14:29.094Z,1230
2017-04-27T10:15:41.627Z,2185
2017-04-27T10:16:54.190Z,3440
2017-04-27T10:18:06.716Z,4025
2017-04-27T10:19:18.640Z,4065
2017-04-27T10:20:31.158Z,4325
2017-04-27T10:21:43.357Z,4470
2017-04-27T10:22:55.624Z,2480
2017-04-27T10:24:08.166Z,1350
2017-04-27T10:25:20.395Z,4350
2017-04-27T10:26:32.966Z,4345
2017-04-27T10:27:45.539Z,3885
2017-04-27T10:28:58.081Z,2850
2017-04-27T10:30:10.377Z,1625
2017-04-27T10:31:22.595Z,3975
2017-04-27T10:32:34.849Z,4045
2017-04-27T10:33:47.433Z,1210
2017-04-27T10:35:00.000Z,990
2017-04-27T10:36:12.550Z,2495
2017-04-27T10:37:25.100Z,4025
2017-04-27T10:38:37.371Z,3840
2017-04-27T10:39:50.188Z,3585
2017-04-27T10:41:02.755Z,3295
2017-04-27T10:42:15.027Z,2310
2017-04-27T10:43:27.258Z,2525
2017-04-27T10:44:39.543Z,3555
2017-04-27T10:45:51.825Z,2915
2017-04-27T10:47:04.392Z,3570
2017-04-27T10:48:16.913Z,3375
2017-04-27T10:49:29.480Z,3220
2017-04-27T10:50:42.060Z,3270
2017-04-27T10:51:54.622Z,3245
2017-04-27T10:53:06.847Z,3365
2017-04-27T10:54:19.418Z,1095
2017-04-27T10:55:31.991Z,960
2017-04-27T10:56:44.538Z,2690
2017-04-27T10:57:57.105Z,2665
2017-04-27T10:59:09.652Z,2640
2017-04-27T11:00:22.230Z,2690
2017-04-27T11:01:34.486Z,2565
2017-04-27T11:02:47.056Z,2475
2017-04-27T11:03:59.607Z,2445
2017-04-27T11:05:12.176Z,2565
2017-04-27T11:06:24.727Z,2850
2017-04-27T11:07:37.277Z,2180
2017-04-27T11:08:49.822Z,2720
2017-04-27T11:10:02.066Z,1395
2017-04-27T11:11:14.616Z,1255
2017-04-27T11:12:27.157Z,2030
2017-04-27T11:13:39.723Z,1505
2017-04-27T11:14:52.274Z,2010
2017-04-27T11:16:04.840Z,2230
2017-04-27T11:17:17.642Z,2560
2017-04-27T11:18:30.211Z,2255
2017-04-27T11:19:42.754Z,1485
2017-04-27T11:20:55.303Z,3395
2017-04-27T11:22:07.874Z,4350
2017-04-27T11:23:20.122Z,1475
2017-04-27T11:24:41.882Z,2020
2017-04-27T11:25:54.110Z,4635
2017-04-27T11:27:06.677Z,3345
2017-04-27T11:28:18.623Z,2525
2017-04-27T11:29:30.902Z,3735
2017-04-27T11:30:43.447Z,4195
2017-04-27T11:31:56.020Z,4690
2017-04-27T11:33:08.561Z,4630
2017-04-27T11:34:20.807Z,4570
2017-04-27T11:35:33.372Z,4440
2017-04-27T11:36:59.327Z,4365
2017-04-27T11:38:11.291Z,4355
2017-04-27T11:39:23.540Z,4035
2017-04-27T11:40:36.091Z,1425
2017-04-27T11:41:48.678Z,3100
2017-04-27T11:43:01.227Z,3225
2017-04-27T11:44:13.748Z,3365
2017-04-27T11:45:25.995Z,1240
2017-04-27T11:46:38.225Z,3550
2017-04-27T11:47:50.790Z,2390
2017-04-27T11:49:03.353Z,3475
2017-04-27T11:50:15.636Z,4880
2017-04-27T11:51:28.175Z,4015
2017-04-27T11:52:40.724Z,1030
2017-04-27T11:53:53.248Z,1025
2017-04-27T11:55:05.488Z,1110
2017-04-27T11:56:17.757Z,1215
2017-04-27T11:57:30.283Z,1345
2017-04-27T11:58:42.853Z,5455
2017-04-27T11:59:55.421Z,4880
2017-04-27T12:01:07.958Z,1275
2017-04-27T12:02:20.554Z,4525
2017-04-27T12:03:33.113Z,4950
2017-04-27T12:04:45.682Z,1065
2017-04-27T12:05:58.234Z,945
2017-04-27T12:07:10.202Z,4645
2017-04-27T12:08:22.152Z,4475
2017-04-27T12:09:34.709Z,4595
2017-04-27T12:10:47.280Z,4900
2017-04-27T12:11:59.505Z,4655
2017-04-27T12:13:12.097Z,4510
2017-04-27T12:14:24.648Z,4795
2017-04-27T12:15:37.223Z,4950
2017-04-27T12:16:49.806Z,5235
2017-04-27T12:18:02.380Z,5360
2017-04-27T12:19:14.637Z,3610
2017-04-27T12:20:27.176Z,1150
2017-04-27T12:21:39.447Z,785
2017-04-27T12:22:52.012Z,1125
2017-04-27T12:24:03.960Z,3015
2017-04-27T12:25:16.214Z,4165
2017-04-27T12:26:28.780Z,4390
2017-04-27T12:27:41.032Z,990
2017-04-27T12:28:53.601Z,4155
2017-04-27T12:30:06.144Z,4160
2017-04-27T12:31:18.417Z,3945
2017-04-27T12:32:30.990Z,4275
2017-04-27T12:33:43.561Z,3890
2017-04-27T12:34:56.104Z,3710
2017-04-27T12:36:08.653Z,1145
2017-04-27T12:37:21.200Z,4600
2017-04-27T12:38:34.006Z,2845
2017-04-27T12:39:46.260Z,1415
2017-04-27T12:40:58.835Z,5445
2017-04-27T12:42:11.358Z,5150
2017-04-27T12:43:23.905Z,4720
2017-04-27T12:44:36.162Z,4040
2017-04-27T12:45:48.695Z,4560
2017-04-27T12:47:00.957Z,4125
2017-04-27T12:48:13.536Z,2815
2017-04-27T12:49:26.100Z,1255
2017-04-27T12:50:38.348Z,1585
2017-04-27T12:51:50.939Z,1710
2017-04-27T12:53:03.508Z,1025
2017-04-27T12:54:15.754Z,1000
2017-04-27T12:55:28.329Z,1055
2017-04-27T12:56:40.586Z,3150
2017-04-27T12:57:52.827Z,3915
2017-04-27T12:59:05.366Z,4140
2017-04-27T13:00:17.898Z,3055
2017-04-27T13:01:30.466Z,1600
2017-04-27T13:02:43.028Z,1180
2017-04-27T13:03:55.271Z,4040
2017-04-27T13:05:07.826Z,4110
2017-04-27T13:06:20.097Z,3590
2017-04-27T13:07:32.393Z,3785
2017-04-27T13:08:44.939Z,4185
2017-04-27T13:09:57.184Z,4180
2017-04-27T13:11:09.724Z,4175
2017-04-27T13:12:21.680Z,3765
2017-04-27T13:13:34.247Z,2670
2017-04-27T13:14:46.797Z,2400
2017-04-27T13:15:59.343Z,2100
2017-04-27T13:17:11.903Z,1245
2017-04-27T13:18:24.140Z,1665
2017-04-27T13:19:36.693Z,2535
2017-04-27T13:20:49.263Z,2490
2017-04-27T13:22:02.063Z,2640
2017-04-27T13:23:14.616Z,2395
2017-04-27T13:24:27.159Z,1325
2017-04-27T13:25:39.708Z,1060
2017-04-27T13:26:52.271Z,1130
2017-04-27T13:28:04.525Z,1120
2017-04-27T13:29:17.079Z,1190
2017-04-27T13:30:29.665Z,1465
2017-04-27T13:31:42.213Z,2610
2017-04-27T13:32:54.756Z,1345
2017-04-27T13:34:07.319Z,2375
2017-04-27T13:35:19.594Z,2340
2017-04-27T13:36:32.122Z,1510
2017-04-27T13:37:44.692Z,1650
2017-04-27T13:38:56.964Z,2010
2017-04-27T13:40:09.527Z,2535
2017-04-27T13:41:21.769Z,3320
2017-04-27T13:42:34.001Z,3355
2017-04-27T13:43:46.561Z,3175
2017-04-27T13:44:59.092Z,3500
2017-04-27T13:46:11.338Z,915
2017-04-27T13:47:23.599Z,800
2017-04-27T13:48:36.134Z,3355
2017-04-27T13:49:48.677Z,3255
2017-04-27T13:51:00.912Z,2920
2017-04-27T13:52:13.451Z,2430
2017-04-27T13:53:26.014Z,1800
2017-04-27T13:54:38.578Z,1360
2017-04-27T13:55:51.128Z,855
2017-04-27T13:57:03.380Z,630
2017-04-27T13:58:15.927Z,600
2017-04-27T13:59:28.497Z,590
2017-04-27T14:00:40.457Z,625
2017-04-27T14:01:52.682Z,1070
2017-04-27T14:03:04.624Z,1365
2017-04-27T14:04:17.178Z,1370
2017-04-27T14:05:29.724Z,1215
2017-04-27T14:06:41.964Z,970
2017-04-27T14:07:54.532Z,760
2017-04-27T14:09:07.077Z,745
2017-04-27T14:10:18.999Z,755
2017-04-27T14:11:31.221Z,730
2017-04-27T14:12:43.168Z,735
2017-04-27T14:13:55.697Z,740
2017-04-27T14:15:07.941Z,745
2017-04-27T14:16:20.479Z,690
2017-04-27T14:17:32.710Z,630
2017-04-27T14:18:45.268Z,590
2017-04-27T14:19:57.839Z,600
2017-04-27T14:21:09.799Z,625
2017-04-27T14:22:22.056Z,640
2017-04-27T14:23:34.584Z,675
2017-04-27T14:24:46.806Z,735
2017-04-27T14:25:59.047Z,735
2017-04-27T14:27:11.292Z,740
2017-04-27T14:28:23.548Z,770
2017-04-27T14:29:36.109Z,840
2017-04-27T14:30:48.342Z,885
2017-04-27T14:32:00.605Z,935
2017-04-27T14:33:12.844Z,965
2017-04-27T14:34:25.402Z,965
2017-04-27T14:35:37.977Z,935
2017-04-27T14:36:50.194Z,915
2017-04-27T14:38:02.666Z,855
2017-04-27T14:39:14.935Z,785
2017-04-27T14:40:27.481Z,760
2017-04-27T14:41:40.027Z,745
2017-04-27T14:42:52.577Z,745
2017-04-27T14:44:04.819Z,770
2017-04-27T14:45:17.065Z,840
2017-04-27T14:46:29.581Z,845
2017-04-27T14:47:41.811Z,795
2017-04-27T14:48:54.370Z,755
2017-04-27T14:50:06.913Z,755
2017-04-27T14:51:18.842Z,760
2017-04-27T14:52:31.382Z,750
2017-04-27T14:53:43.925Z,765
2017-04-27T14:54:56.509Z,810
2017-04-27T14:56:08.771Z,865
2017-04-27T14:57:21.020Z,890
2017-04-27T14:58:33.544Z,920
2017-04-27T14:59:46.066Z,915
2017-04-27T15:00:58.610Z,860
2017-04-27T15:02:11.146Z,810
2017-04-27T15:03:23.380Z,750
2017-04-27T15:04:35.919Z,695
2017-04-27T15:05:48.159Z,655
2017-04-27T15:07:00.720Z,610
2017-04-27T15:08:12.713Z,595
2017-04-27T15:09:24.955Z,580
2017-04-27T15:10:37.475Z,580
2017-04-27T15:11:49.716Z,585
2017-04-27T15:13:02.246Z,590
2017-04-27T15:14:13.895Z,590
2017-04-27T15:15:26.451Z,580
2017-04-27T15:16:38.683Z,575
2017-04-27T15:17:51.219Z,565
2017-04-27T15:19:03.768Z,555
2017-04-27T15:20:15.970Z,550
2017-04-27T15:21:28.505Z,555
2017-04-27T15:22:41.009Z,555
2017-04-27T15:23:53.600Z,565
2017-04-27T15:25:06.156Z,560
2017-04-27T15:26:18.698Z,560
2017-04-27T15:27:30.920Z,565
2017-04-27T15:28:43.459Z,590
2017-04-27T15:29:55.686Z,585
2017-04-27T15:31:08.258Z,565
2017-04-27T15:32:20.476Z,540
2017-04-27T15:33:32.700Z,535
2017-04-27T15:34:45.196Z,550
2017-04-27T15:35:57.720Z,565
2017-04-27T15:37:09.688Z,575
2017-04-27T15:38:21.949Z,565
2017-04-27T15:39:34.494Z,550
2017-04-27T15:40:47.022Z,545
2017-04-27T15:41:59.563Z,535
2017-04-27T15:43:12.042Z,515
2017-04-27T15:44:24.285Z,485
2017-04-27T15:45:36.846Z,440
2017-04-27T15:46:49.398Z,415
2017-04-27T15:48:01.644Z,400
2017-04-27T15:49:14.173Z,400
2017-04-27T15:50:26.416Z,380
2017-04-27T15:51:38.965Z,380
2017-04-27T15:52:51.483Z,380
2017-04-27T15:54:03.707Z,370
2017-04-27T15:55:15.940Z,355
2017-04-27T15:56:28.470Z,345
2017-04-27T15:57:41.011Z,335
2017-04-27T15:58:53.557Z,330
2017-04-27T16:00:06.125Z,330
2017-04-27T16:01:18.654Z,315
2017-04-27T16:02:30.869Z,315
2017-04-27T16:03:43.103Z,315
2017-04-27T16:04:55.627Z,320
2017-04-27T16:06:08.179Z,300
2017-04-27T16:07:20.109Z,300
2017-04-27T16:08:32.649Z,310
2017-04-27T16:09:44.892Z,315
2017-04-27T16:10:57.421Z,325
2017-04-27T16:12:09.662Z,335
2017-04-27T16:13:22.198Z,345
2017-04-27T16:14:34.754Z,355
2017-04-27T16:15:47.278Z,385
2017-04-27T16:16:59.831Z,405
2017-04-27T16:18:12.374Z,425
2017-04-27T16:19:24.893Z,445
2017-04-27T16:20:37.134Z,455
2017-04-27T16:21:49.662Z,445
2017-04-27T16:23:02.207Z,435
2017-04-27T16:24:14.472Z,425
2017-04-27T16:25:27.048Z,410
2017-04-27T16:26:39.296Z,400
2017-04-27T16:27:51.513Z,385
2017-04-27T16:29:04.034Z,355
2017-04-27T16:30:16.277Z,330
2017-04-27T16:31:28.801Z,310
2017-04-27T16:32:41.021Z,295
2017-04-27T16:33:53.549Z,280
2017-04-27T16:35:06.092Z,270
2017-04-27T16:36:18.316Z,260
2017-04-27T16:37:31.147Z,255
2017-04-27T16:38:43.655Z,250
2017-04-27T16:39:56.203Z,240
2017-04-27T16:41:08.749Z,230
2017-04-27T16:42:21.568Z,220